Time;durP1;ratioP1;P1;durP2;ratioP2;P2;SDS_P1;SDS_P2;PMS_P1;PMS_P2;Temp;Humidity;BMP_temperature;BMP_pressure;BME280_temperature;BME280_humidity;BME280_pressure;Samples;Min_cycle;Max_cycle;Signal;HPM_P1;HPM_P2
2022/06/25 00:01:17;;;;;;;11.80;10.20;;;17.10;99.90;;;;;;5146389;27;20038;-62
2022/06/25 00:03:43;;;;;;;11.30;10.10;;;17.20;99.90;;;;;;5147356;27;20443;-62
2022/06/25 00:06:09;;;;;;;11.10;9.48;;;17.10;99.90;;;;;;5144345;27;20039;-60
2022/06/25 00:08:37;;;;;;;10.55;9.45;;;17.20;99.90;;;;;;5142023;27;20027;-61
2022/06/25 00:11:04;;;;;;;11.63;10.45;;;17.10;99.90;;;;;;5147127;27;20046;-61
2022/06/25 00:13:30;;;;;;;10.48;9.38;;;17.10;99.90;;;;;;5150049;27;20038;-60
2022/06/25 00:15:56;;;;;;;12.80;9.65;;;17.20;99.90;;;;;;5142911;27;20111;-61
2022/06/25 00:18:22;;;;;;;11.68;10.48;;;17.20;99.90;;;;;;5140618;27;20060;-60
2022/06/25 00:20:47;;;;;;;10.65;9.60;;;17.20;99.90;;;;;;5151792;27;20091;-61
2022/06/25 00:23:13;;;;;;;10.43;9.27;;;17.20;99.90;;;;;;5131236;27;20427;-60
2022/06/25 00:25:40;;;;;;;14.48;10.63;;;17.10;99.90;;;;;;5142252;27;20030;-60
2022/06/25 00:28:06;;;;;;;11.43;10.27;;;17.20;99.90;;;;;;5151458;27;20076;-62
2022/06/25 00:30:32;;;;;;;14.68;11.75;;;17.20;99.90;;;;;;5132219;27;20042;-61
2022/06/25 00:32:58;;;;;;;13.32;10.63;;;17.10;99.90;;;;;;5146628;27;20037;-61
2022/06/25 00:35:24;;;;;;;12.32;11.02;;;17.10;99.90;;;;;;5141216;27;20498;-61
2022/06/25 00:37:50;;;;;;;16.45;11.32;;;17.10;99.90;;;;;;5150634;27;20043;-61
2022/06/25 00:40:15;;;;;;;12.63;11.32;;;17.10;99.90;;;;;;5147935;27;20049;-62
2022/06/25 00:42:42;;;;;;;13.02;11.43;;;17.20;99.90;;;;;;5142200;27;20039;-61
2022/06/25 00:45:12;;;;;;;14.88;11.63;;;17.10;99.90;;;;;;5142559;27;20046;-60
2022/06/25 00:47:38;;;;;;;12.95;11.63;;;17.10;99.90;;;;;;5146266;27;20121;-60
2022/06/25 00:50:05;;;;;;;12.65;11.35;;;17.20;99.90;;;;;;5145577;27;20035;-60
2022/06/25 00:52:33;;;;;;;12.07;10.70;;;17.10;99.90;;;;;;5151723;27;20470;-61
2022/06/25 00:55:10;;;;;;;13.57;11.50;;;17.10;99.90;;;;;;5131298;27;20052;-60
2022/06/25 00:57:42;;;;;;;12.95;11.30;;;17.20;99.90;;;;;;5147120;27;20050;-59
2022/06/25 01:00:11;;;;;;;12.70;11.35;;;17.10;99.90;;;;;;5147987;27;20050;-61
2022/06/25 01:02:39;;;;;;;16.05;12.52;;;17.10;99.90;;;;;;5143737;27;20114;-60
2022/06/25 01:05:06;;;;;;;13.43;12.02;;;17.10;99.90;;;;;;5138957;27;20078;-62
2022/06/25 01:07:32;;;;;;;13.93;11.65;;;17.10;99.90;;;;;;5149624;27;20610;-61
2022/06/25 01:09:58;;;;;;;15.68;12.27;;;17.10;99.90;;;;;;5149064;27;20066;-61
2022/06/25 01:12:23;;;;;;;16.50;13.32;;;17.10;99.90;;;;;;5131185;27;20066;-61
2022/06/25 01:15:10;;;;;;;13.68;11.85;;;17.00;99.90;;;;;;5150395;27;20458;-61
2022/06/25 01:17:41;;;;;;;14.52;12.77;;;17.00;99.90;;;;;;5138091;27;20049;-60
2022/06/25 01:20:08;;;;;;;13.85;12.27;;;17.00;99.90;;;;;;5148794;27;20043;-61
2022/06/25 01:22:33;;;;;;;14.82;12.05;;;17.00;99.90;;;;;;5148225;27;20041;-60
2022/06/25 01:24:59;;;;;;;15.93;12.30;;;17.00;99.90;;;;;;5151780;27;20038;-61
2022/06/25 01:27:25;;;;;;;14.18;12.05;;;16.90;99.90;;;;;;5150342;27;20379;-61
2022/06/25 01:29:51;;;;;;;13.80;12.30;;;16.90;99.90;;;;;;5128369;27;20153;-62
2022/06/25 01:32:17;;;;;;;15.45;11.93;;;16.90;99.90;;;;;;5129508;27;20518;-61
2022/06/25 01:34:42;;;;;;;14.73;13.07;;;16.90;99.90;;;;;;5148531;27;20031;-61
2022/06/25 01:37:08;;;;;;;13.93;12.30;;;16.80;99.90;;;;;;5128137;27;20542;-61
2022/06/25 01:39:33;;;;;;;15.70;12.85;;;16.80;99.90;;;;;;5147713;27;20087;-62
2022/06/25 01:42:00;;;;;;;13.27;11.88;;;16.80;99.90;;;;;;5145307;27;20034;-60
2022/06/25 01:44:26;;;;;;;15.13;12.48;;;16.80;99.90;;;;;;5147226;27;20073;-62
2022/06/25 01:46:51;;;;;;;13.70;12.32;;;16.80;99.90;;;;;;5147217;27;20761;-61
2022/06/25 01:49:17;;;;;;;13.13;11.40;;;16.70;99.90;;;;;;5148165;27;20035;-60
2022/06/25 01:51:43;;;;;;;13.20;11.70;;;16.70;99.90;;;;;;5132842;27;20477;-61
2022/06/25 01:54:08;;;;;;;14.63;11.70;;;16.70;99.90;;;;;;5146241;27;20130;-60
2022/06/25 01:56:34;;;;;;;12.77;11.05;;;16.60;99.90;;;;;;5126314;27;20371;-61
2022/06/25 01:59:00;;;;;;;14.43;12.18;;;16.60;99.90;;;;;;5146758;27;20034;-61
2022/06/25 02:01:25;;;;;;;15.00;12.35;;;16.70;99.90;;;;;;5143794;27;20121;-61
2022/06/25 02:03:51;;;;;;;13.43;11.75;;;16.60;99.90;;;;;;5147850;27;20462;-60
2022/06/25 02:06:17;;;;;;;14.68;13.15;;;16.60;99.90;;;;;;5146246;27;20114;-60
2022/06/25 02:08:42;;;;;;;14.02;12.00;;;16.50;99.90;;;;;;5140484;27;20096;-61
2022/06/25 02:11:09;;;;;;;15.93;13.63;;;16.50;99.90;;;;;;5142738;27;22243;-62
2022/06/25 02:13:34;;;;;;;15.30;12.77;;;16.50;99.90;;;;;;5147454;27;20113;-62
2022/06/25 02:16:02;;;;;;;17.30;13.63;;;16.50;99.90;;;;;;5128307;27;20478;-61
2022/06/25 02:18:27;;;;;;;17.95;13.07;;;16.40;99.90;;;;;;5147758;27;20113;-61
2022/06/25 02:20:54;;;;;;;17.25;14.07;;;16.30;99.90;;;;;;5149424;27;20125;-61
2022/06/25 02:23:21;;;;;;;16.00;13.40;;;16.30;99.90;;;;;;5147743;27;20095;-61
2022/06/25 02:25:46;;;;;;;15.95;13.60;;;16.40;99.90;;;;;;5144810;27;20035;-61
2022/06/25 02:28:13;;;;;;;17.15;14.82;;;16.40;99.90;;;;;;5151422;27;20466;-61
2022/06/25 02:30:39;;;;;;;18.33;14.02;;;16.30;99.90;;;;;;5152572;27;20118;-61
2022/06/25 02:33:11;;;;;;;16.83;14.57;;;16.30;99.90;;;;;;5145052;27;20035;-62
2022/06/25 02:35:38;;;;;;;18.98;15.20;;;16.40;99.90;;;;;;5148797;27;20086;-61
2022/06/25 02:38:03;;;;;;;20.38;16.63;;;16.30;99.90;;;;;;5146465;27;20474;-61
2022/06/25 02:40:29;;;;;;;18.27;16.33;;;16.30;99.90;;;;;;5151224;27;20034;-61
2022/06/25 02:42:54;;;;;;;18.52;15.73;;;16.30;99.90;;;;;;5151195;27;20371;-61
2022/06/25 02:45:20;;;;;;;18.02;15.38;;;16.30;99.90;;;;;;5150206;27;20143;-61
2022/06/25 02:47:46;;;;;;;18.77;15.65;;;16.30;99.90;;;;;;5151852;27;20068;-60
2022/06/25 02:50:11;;;;;;;18.50;15.52;;;16.30;99.90;;;;;;5154069;27;20042;-61
2022/06/25 02:52:37;;;;;;;20.38;16.40;;;16.30;99.90;;;;;;5154818;27;20039;-59
2022/06/25 02:55:03;;;;;;;21.67;17.35;;;16.30;99.90;;;;;;5152694;27;20115;-60
2022/06/25 03:00:13;;;;;;;22.25;17.83;;;16.30;99.90;;;;;;5146395;27;20054;-60
2022/06/25 03:02:39;;;;;;;19.67;16.40;;;16.30;99.90;;;;;;5145495;27;20038;-60
2022/06/25 03:05:05;;;;;;;20.63;16.75;;;16.30;99.90;;;;;;5150269;27;20383;-61
2022/06/25 03:07:31;;;;;;;21.15;16.80;;;16.30;99.90;;;;;;5153076;27;20183;-61
2022/06/25 03:09:56;;;;;;;22.52;16.25;;;16.20;99.90;;;;;;5153171;27;20451;-61
2022/06/25 03:12:22;;;;;;;19.98;17.23;;;16.20;99.90;;;;;;5143829;27;20042;-62
2022/06/25 03:14:48;;;;;;;18.30;16.08;;;16.20;99.90;;;;;;5148370;27;20033;-62
2022/06/25 03:17:13;;;;;;;21.58;16.20;;;16.20;99.90;;;;;;5145998;27;20077;-61
2022/06/25 03:19:39;;;;;;;23.55;17.73;;;16.20;99.90;;;;;;5150893;27;20050;-61
2022/06/25 03:22:04;;;;;;;21.77;17.70;;;16.20;99.90;;;;;;5150931;27;20039;-62
2022/06/25 03:24:30;;;;;;;22.50;17.67;;;16.20;99.90;;;;;;5152636;27;20062;-61
2022/06/25 03:26:55;;;;;;;20.20;16.42;;;16.20;99.90;;;;;;5149811;27;20039;-60
2022/06/25 03:29:21;;;;;;;22.50;16.75;;;16.20;99.90;;;;;;5150253;27;20039;-62
2022/06/25 03:31:46;;;;;;;20.52;16.95;;;16.20;99.90;;;;;;5131378;27;20030;-61
2022/06/25 03:34:12;;;;;;;20.75;16.35;;;16.20;99.90;;;;;;5150713;27;20035;-62
2022/06/25 03:36:38;;;;;;;21.58;16.13;;;16.10;99.90;;;;;;5147825;27;20102;-61
2022/06/25 03:39:04;;;;;;;19.65;16.40;;;16.20;99.90;;;;;;5128376;27;20075;-61
2022/06/25 03:41:32;;;;;;;23.00;17.20;;;16.10;99.90;;;;;;5151681;27;20470;-60
2022/06/25 03:43:58;;;;;;;20.42;16.83;;;16.20;99.90;;;;;;5131074;27;20042;-60
2022/06/25 03:46:24;;;;;;;21.48;16.00;;;16.20;99.90;;;;;;5148884;27;20035;-61
2022/06/25 03:48:49;;;;;;;21.27;16.65;;;16.20;99.90;;;;;;5146196;27;20046;-61
2022/06/25 03:51:15;;;;;;;20.48;16.60;;;16.20;99.90;;;;;;5151989;27;20035;-60
2022/06/25 03:53:41;;;;;;;20.90;15.98;;;16.20;99.90;;;;;;5152834;27;20043;-61
2022/06/25 03:56:07;;;;;;;23.48;15.77;;;16.20;99.90;;;;;;5154686;27;20038;-60
2022/06/25 03:58:32;;;;;;;18.63;16.45;;;16.20;99.90;;;;;;5150641;27;20042;-61
2022/06/25 04:00:58;;;;;;;18.15;16.15;;;16.30;99.90;;;;;;5143635;27;20033;-61
2022/06/25 04:03:25;;;;;;;20.58;16.15;;;16.30;99.90;;;;;;5148778;27;20043;-60
2022/06/25 04:05:50;;;;;;;19.13;15.00;;;16.20;99.90;;;;;;5128868;27;20393;-61
2022/06/25 04:08:16;;;;;;;19.13;15.88;;;16.20;99.90;;;;;;5152771;27;20126;-60
2022/06/25 04:10:42;;;;;;;19.48;14.70;;;16.20;99.90;;;;;;5151204;27;20435;-60
2022/06/25 04:13:08;;;;;;;20.52;15.70;;;16.20;99.90;;;;;;5149659;27;20053;-61
2022/06/25 04:15:35;;;;;;;18.70;16.27;;;16.30;99.90;;;;;;5145990;27;20053;-60
2022/06/25 04:18:01;;;;;;;18.85;15.80;;;16.30;99.90;;;;;;5143686;27;20035;-61
2022/06/25 04:20:27;;;;;;;18.48;14.70;;;16.40;99.90;;;;;;5150144;27;20515;-60
2022/06/25 04:22:53;;;;;;;18.77;16.50;;;16.30;99.90;;;;;;5155323;27;20049;-60
2022/06/25 04:25:19;;;;;;;19.45;15.57;;;16.40;99.90;;;;;;5149693;27;20050;-61
2022/06/25 04:30:28;;;;;;;17.58;14.85;;;16.50;99.90;;;;;;5144529;27;20039;-60
2022/06/25 04:32:54;;;;;;;17.40;14.90;;;16.60;99.90;;;;;;5145860;27;20035;-61
2022/06/25 04:35:20;;;;;;;19.75;14.65;;;16.60;99.90;;;;;;5148648;27;20027;-60
2022/06/25 04:37:46;;;;;;;17.23;13.73;;;16.60;99.90;;;;;;5154017;27;20039;-61
2022/06/25 04:40:12;;;;;;;18.25;14.88;;;16.70;99.90;;;;;;5126002;27;20070;-61
2022/06/25 04:42:38;;;;;;;17.02;14.23;;;16.80;99.90;;;;;;5149950;27;20482;-61
2022/06/25 04:45:04;;;;;;;15.40;13.43;;;16.80;99.90;;;;;;5140065;27;20034;-61
2022/06/25 04:47:29;;;;;;;18.45;14.05;;;16.90;99.90;;;;;;5146852;27;20390;-60
2022/06/25 04:49:55;;;;;;;16.75;13.63;;;16.90;99.90;;;;;;5150272;27;20427;-60
2022/06/25 04:52:20;;;;;;;15.77;13.07;;;16.90;99.90;;;;;;5135709;27;20103;-60
2022/06/25 04:54:46;;;;;;;16.67;13.80;;;17.00;99.90;;;;;;5147859;27;20308;-60
2022/06/25 04:57:11;;;;;;;16.25;13.68;;;17.10;99.90;;;;;;5146284;27;20038;-61
2022/06/25 04:59:37;;;;;;;16.58;13.18;;;17.20;99.90;;;;;;5141008;27;20030;-62
2022/06/25 05:02:03;;;;;;;14.88;12.32;;;17.30;99.90;;;;;;5116179;27;20787;-60
2022/06/25 05:04:28;;;;;;;14.15;12.32;;;17.30;99.90;;;;;;5146363;27;20031;-62
2022/06/25 05:06:54;;;;;;;14.50;12.25;;;17.40;99.90;;;;;;5141930;27;20043;-59
2022/06/25 05:09:19;;;;;;;14.90;11.85;;;17.50;99.90;;;;;;5148080;27;20635;-61
2022/06/25 05:11:45;;;;;;;13.98;11.48;;;17.60;99.90;;;;;;5146425;27;20090;-61
2022/06/25 05:14:11;;;;;;;14.25;11.13;;;17.60;99.90;;;;;;5143078;27;20030;-61
2022/06/25 05:16:36;;;;;;;13.18;10.90;;;17.80;99.90;;;;;;5146233;27;20084;-61
2022/06/25 05:19:02;;;;;;;13.27;10.48;;;17.90;99.90;;;;;;5127689;27;20066;-62
2022/06/25 05:21:27;;;;;;;12.25;9.90;;;17.90;99.90;;;;;;5148206;27;20098;-62
2022/06/25 05:23:53;;;;;;;11.98;9.63;;;18.00;99.90;;;;;;5152697;27;20436;-60
2022/06/25 05:26:19;;;;;;;11.98;9.90;;;18.10;99.90;;;;;;5147723;27;20031;-61
2022/06/25 05:28:44;;;;;;;10.45;8.75;;;18.30;99.90;;;;;;5144998;27;20027;-62
2022/06/25 05:31:10;;;;;;;10.52;9.32;;;18.40;99.90;;;;;;5123567;27;22666;-60
2022/06/25 05:33:36;;;;;;;9.93;8.65;;;18.50;99.90;;;;;;5124882;27;20496;-62
2022/06/25 05:36:02;;;;;;;9.75;8.75;;;18.60;99.90;;;;;;5140043;27;20123;-61
2022/06/25 05:38:27;;;;;;;9.50;8.07;;;18.70;99.90;;;;;;5138963;27;20058;-62
2022/06/25 05:40:54;;;;;;;9.50;8.18;;;18.80;99.90;;;;;;5121535;27;20076;-63
2022/06/25 05:43:19;;;;;;;9.25;8.30;;;18.90;99.90;;;;;;5140069;27;21699;-61
2022/06/25 05:45:45;;;;;;;8.80;7.88;;;19.00;99.90;;;;;;5143850;27;20113;-60
2022/06/25 05:48:10;;;;;;;13.23;8.13;;;19.00;99.90;;;;;;5125566;27;20042;-61
2022/06/25 05:50:36;;;;;;;9.23;8.30;;;19.00;99.90;;;;;;5152404;27;20446;-62
2022/06/25 05:53:01;;;;;;;8.93;7.55;;;19.10;99.90;;;;;;5152199;27;20046;-61
2022/06/25 05:55:27;;;;;;;8.82;7.80;;;19.30;99.90;;;;;;5129983;27;20043;-61
2022/06/25 05:57:53;;;;;;;11.02;7.65;;;19.40;99.90;;;;;;5140434;27;20039;-61
2022/06/25 06:00:19;;;;;;;9.65;6.65;;;19.40;99.90;;;;;;5150025;27;20042;-62
2022/06/25 06:02:45;;;;;;;8.20;7.40;;;19.50;99.90;;;;;;5135865;27;20117;-61
2022/06/25 06:05:11;;;;;;;10.15;7.00;;;19.50;99.90;;;;;;5128407;27;20061;-62
2022/06/25 06:07:37;;;;;;;9.82;7.43;;;19.70;99.90;;;;;;5123194;27;20038;-61
2022/06/25 06:10:04;;;;;;;10.80;7.28;;;19.90;99.90;;;;;;5131623;27;20052;-62
2022/06/25 06:12:29;;;;;;;8.07;7.10;;;20.00;99.90;;;;;;5150841;27;20318;-62
2022/06/25 06:14:55;;;;;;;9.80;6.55;;;20.10;99.90;;;;;;5140757;27;20031;-63
2022/06/25 06:17:21;;;;;;;10.40;7.22;;;20.30;99.90;;;;;;5148610;27;20039;-63
2022/06/25 06:19:46;;;;;;;8.95;7.47;;;20.40;99.90;;;;;;5155719;27;20034;-63
2022/06/25 06:22:12;;;;;;;8.70;6.68;;;20.10;99.90;;;;;;5152599;27;20138;-63
2022/06/25 06:24:38;;;;;;;9.93;6.72;;;20.30;99.90;;;;;;5149937;27;20038;-61
2022/06/25 06:27:04;;;;;;;9.10;6.80;;;20.50;99.90;;;;;;5151431;27;20124;-61
2022/06/25 06:29:29;;;;;;;7.95;6.10;;;20.60;99.90;;;;;;5124353;27;20031;-62
2022/06/25 06:31:55;;;;;;;6.90;6.10;;;20.70;99.90;;;;;;5140834;27;20527;-62
2022/06/25 06:34:21;;;;;;;7.18;6.07;;;20.90;99.90;;;;;;5147101;27;20035;-61
2022/06/25 06:36:47;;;;;;;9.75;6.32;;;20.60;99.90;;;;;;5142641;27;20626;-61
2022/06/25 06:39:13;;;;;;;8.10;5.90;;;20.60;99.90;;;;;;5141249;27;20077;-61
2022/06/25 06:41:38;;;;;;;9.15;6.38;;;20.70;99.90;;;;;;5147676;27;20035;-61
2022/06/25 06:44:04;;;;;;;8.82;5.93;;;20.90;99.90;;;;;;5144776;27;20478;-62
2022/06/25 06:46:30;;;;;;;10.18;5.55;;;21.20;99.90;;;;;;5158451;27;20419;-62
2022/06/25 06:48:56;;;;;;;9.02;5.65;;;21.40;99.90;;;;;;5147488;27;20027;-62
2022/06/25 06:51:21;;;;;;;6.80;6.03;;;21.60;99.90;;;;;;5143888;27;20029;-62
2022/06/25 06:53:47;;;;;;;9.43;5.13;;;21.70;99.90;;;;;;5148540;27;20405;-61
2022/06/25 06:56:13;;;;;;;6.63;5.05;;;21.60;99.90;;;;;;5153321;27;20042;-62
2022/06/25 06:58:38;;;;;;;7.15;4.82;;;21.70;99.90;;;;;;5149793;27;20088;-61
2022/06/25 07:01:04;;;;;;;5.80;4.63;;;21.70;99.90;;;;;;5144010;27;20498;-62
2022/06/25 07:03:29;;;;;;;8.70;5.22;;;21.80;99.90;;;;;;5125840;27;20036;-63
2022/06/25 07:05:55;;;;;;;4.85;4.32;;;21.90;96.20;;;;;;5150585;27;20039;-62
2022/06/25 07:08:21;;;;;;;6.63;4.00;;;22.20;99.40;;;;;;5168133;27;20091;-63
2022/06/25 07:10:47;;;;;;;6.35;4.13;;;22.40;98.30;;;;;;5145617;27;20042;-62
2022/06/25 07:13:13;;;;;;;7.45;4.60;;;22.40;97.90;;;;;;5149340;27;20047;-62
2022/06/25 07:15:39;;;;;;;6.70;4.43;;;22.40;96.20;;;;;;5151679;27;20049;-62
2022/06/25 07:18:06;;;;;;;6.60;3.42;;;22.40;95.50;;;;;;5150825;27;20035;-62
2022/06/25 07:20:31;;;;;;;7.68;3.60;;;22.70;95.40;;;;;;5155620;27;20042;-62
2022/06/25 07:22:57;;;;;;;9.55;3.78;;;22.60;95.10;;;;;;5135897;27;20035;-62
2022/06/25 07:25:22;;;;;;;6.85;3.80;;;22.80;93.30;;;;;;5135252;27;20034;-63
2022/06/25 07:27:48;;;;;;;5.20;3.25;;;22.40;93.20;;;;;;5154234;27;20042;-62
2022/06/25 07:30:16;;;;;;;3.95;3.10;;;22.70;92.50;;;;;;5154594;27;20039;-62
2022/06/25 07:32:42;;;;;;;5.53;3.13;;;23.10;92.50;;;;;;5152104;27;20091;-63
2022/06/25 07:35:08;;;;;;;3.80;2.70;;;23.40;92.40;;;;;;5153448;27;20462;-62
2022/06/25 07:37:34;;;;;;;4.60;2.83;;;23.80;91.50;;;;;;5156043;27;20423;-62
2022/06/25 07:40:00;;;;;;;3.50;3.00;;;24.20;90.50;;;;;;5155139;27;20026;-63
2022/06/25 07:42:26;;;;;;;4.35;3.00;;;24.20;88.90;;;;;;5152034;27;20454;-62
2022/06/25 07:44:52;;;;;;;6.45;3.00;;;24.50;84.90;;;;;;5155089;27;20054;-63
2022/06/25 07:47:18;;;;;;;3.38;2.95;;;24.20;81.90;;;;;;5155158;27;20042;-63
2022/06/25 07:52:28;;;;;;;3.92;2.40;;;23.90;81.40;;;;;;5151801;27;20031;-62
2022/06/25 07:54:54;;;;;;;4.95;2.38;;;24.00;81.70;;;;;;5155957;27;20451;-63
2022/06/25 07:57:19;;;;;;;3.00;2.28;;;24.40;83.50;;;;;;5156790;27;20038;-62
2022/06/25 07:59:45;;;;;;;4.35;1.80;;;24.60;81.10;;;;;;5152002;27;20042;-63
2022/06/25 08:02:11;;;;;;;2.97;2.08;;;25.00;81.50;;;;;;5151450;27;20035;-62
2022/06/25 08:04:36;;;;;;;3.67;2.28;;;25.20;77.40;;;;;;5153306;27;20039;-62
2022/06/25 08:07:02;;;;;;;3.88;1.88;;;24.80;79.80;;;;;;5146327;27;20049;-64
2022/06/25 08:09:28;;;;;;;4.05;2.08;;;24.90;81.00;;;;;;5135697;27;20070;-63
2022/06/25 08:11:53;;;;;;;2.50;1.90;;;25.10;78.90;;;;;;5154442;27;20625;-62
2022/06/25 08:14:19;;;;;;;3.17;2.13;;;25.00;78.30;;;;;;5151762;27;20047;-62
2022/06/25 08:16:44;;;;;;;2.63;1.80;;;24.80;75.00;;;;;;5151455;27;20406;-64
2022/06/25 08:19:10;;;;;;;3.03;1.83;;;25.00;76.40;;;;;;5134974;27;20053;-62
2022/06/25 08:21:35;;;;;;;4.32;2.38;;;25.70;73.60;;;;;;5155004;27;20091;-62
2022/06/25 08:24:01;;;;;;;4.82;2.20;;;25.30;74.90;;;;;;5155809;27;20490;-63
2022/06/25 08:26:26;;;;;;;2.92;2.25;;;26.00;74.80;;;;;;5130027;27;20549;-62
2022/06/25 08:28:52;;;;;;;3.28;2.40;;;26.20;71.30;;;;;;5153830;27;20070;-62
2022/06/25 08:31:18;;;;;;;3.58;1.98;;;25.80;69.70;;;;;;5152702;27;20048;-65
2022/06/25 08:33:43;;;;;;;3.22;2.10;;;25.50;69.60;;;;;;5145825;27;20075;-64
2022/06/25 08:36:09;;;;;;;5.72;1.92;;;25.70;69.90;;;;;;5153893;27;20402;-64
2022/06/25 08:38:35;;;;;;;6.07;2.00;;;26.20;68.40;;;;;;5146452;27;20494;-64
2022/06/25 08:41:02;;;;;;;4.13;1.80;;;26.00;67.50;;;;;;5145731;27;20042;-63
2022/06/25 08:43:29;;;;;;;5.65;2.10;;;26.20;68.00;;;;;;5146276;27;20031;-63
2022/06/25 08:45:55;;;;;;;4.93;1.92;;;25.30;65.70;;;;;;5149696;27;20039;-63
2022/06/25 08:48:24;;;;;;;3.47;2.03;;;25.50;67.10;;;;;;5147161;27;20068;-64
2022/06/25 08:50:50;;;;;;;5.55;1.98;;;25.70;66.10;;;;;;5127926;27;20426;-62
2022/06/25 08:53:17;;;;;;;6.95;1.92;;;26.20;66.60;;;;;;5145597;27;20617;-63
2022/06/25 08:55:45;;;;;;;3.35;2.00;;;26.70;63.80;;;;;;5119078;27;20493;-63
2022/06/25 08:58:11;;;;;;;6.45;1.98;;;26.10;61.20;;;;;;5161467;27;20113;-62
2022/06/25 09:00:39;;;;;;;2.58;1.80;;;25.80;60.40;;;;;;5146650;27;20525;-62
2022/06/25 09:03:07;;;;;;;5.18;1.98;;;26.00;63.50;;;;;;5148426;27;20046;-64
2022/06/25 09:05:40;;;;;;;2.85;1.77;;;26.00;64.10;;;;;;5140585;27;20039;-63
2022/06/25 09:08:08;;;;;;;3.00;1.70;;;26.10;64.20;;;;;;5152376;27;20041;-63
2022/06/25 09:10:35;;;;;;;3.33;1.80;;;26.50;61.90;;;;;;5152959;27;20590;-62
2022/06/25 09:13:03;;;;;;;3.75;1.67;;;26.90;60.50;;;;;;5166490;27;20071;-61
2022/06/25 09:15:33;;;;;;;3.75;1.90;;;26.40;61.40;;;;;;5162724;27;20126;-62
2022/06/25 09:18:09;;;;;;;3.13;2.20;;;26.90;61.40;;;;;;5154020;27;20113;-64
2022/06/25 09:20:36;;;;;;;4.82;2.22;;;27.00;61.40;;;;;;5144285;27;20039;-64
2022/06/25 09:23:06;;;;;;;2.97;1.80;;;27.30;60.30;;;;;;5120943;27;20035;-63
2022/06/25 09:25:32;;;;;;;;;;;26.70;58.90;;;;;;5150943;27;20046;-62
2022/06/25 09:27:59;;;;;;;2.15;1.63;;;27.20;58.60;;;;;;5152397;27;20002;-64
2022/06/25 09:30:26;;;;;;;1.98;1.50;;;26.90;59.00;;;;;;5171695;27;20059;-62
2022/06/25 09:32:58;;;;;;;3.88;1.55;;;27.10;59.30;;;;;;5162638;27;20030;-63
2022/06/25 09:35:35;;;;;;;3.92;1.60;;;27.10;58.70;;;;;;5155970;27;20035;-64
2022/06/25 09:38:11;;;;;;;2.72;1.40;;;26.90;57.10;;;;;;5128839;27;20078;-63
2022/06/25 09:40:39;;;;;;;4.22;1.63;;;26.80;58.20;;;;;;5149737;27;20055;-64
2022/06/25 09:43:13;;;;;;;2.42;1.60;;;26.90;59.80;;;;;;5127025;27;20043;-61
2022/06/25 09:45:39;;;;;;;2.78;1.40;;;27.90;55.90;;;;;;5165977;27;20042;-64
2022/06/25 09:48:09;;;;;;;3.97;1.42;;;27.60;56.40;;;;;;5161137;27;20034;-62
2022/06/25 09:50:35;;;;;;;2.03;1.23;;;27.60;56.20;;;;;;5159187;27;20026;-62
2022/06/25 09:53:00;;;;;;;1.30;1.15;;;26.80;57.20;;;;;;5154691;27;20087;-62
2022/06/25 09:55:28;;;;;;;3.22;1.80;;;27.10;57.30;;;;;;5161494;27;20043;-63
2022/06/25 09:57:54;;;;;;;2.75;1.75;;;26.50;55.40;;;;;;5158900;27;20393;-63
2022/06/25 10:00:22;;;;;;;3.47;2.03;;;26.80;58.50;;;;;;5146438;27;20039;-64
2022/06/25 10:02:50;;;;;;;3.40;1.70;;;27.30;57.00;;;;;;5156976;27;20060;-63
2022/06/25 10:05:37;;;;;;;3.47;2.22;;;27.50;57.10;;;;;;5155782;27;20414;-62
2022/06/25 10:08:09;;;;;;;4.65;2.13;;;27.10;53.70;;;;;;5169798;27;20034;-63
2022/06/25 10:10:41;;;;;;;3.30;2.00;;;27.20;56.20;;;;;;5152354;27;21306;-63
2022/06/25 10:13:07;;;;;;;8.73;2.78;;;27.90;54.80;;;;;;5153473;27;20037;-63
2022/06/25 10:15:33;;;;;;;2.90;2.00;;;27.40;52.90;;;;;;5145642;27;20037;-62
2022/06/25 10:18:01;;;;;;;4.22;2.20;;;26.90;56.40;;;;;;5150387;27;20035;-63
2022/06/25 10:20:28;;;;;;;3.58;2.20;;;27.70;55.80;;;;;;5153485;27;20043;-63
2022/06/25 10:22:57;;;;;;;3.20;2.28;;;28.10;55.40;;;;;;5144959;27;20419;-62
2022/06/25 10:25:24;;;;;;;3.40;2.07;;;28.20;53.70;;;;;;5145536;27;20068;-63
2022/06/25 10:28:01;;;;;;;3.15;2.20;;;27.80;55.10;;;;;;5146815;27;20299;-62
2022/06/25 10:30:54;;;;;;;2.70;1.85;;;28.40;53.20;;;;;;5124287;27;20488;-63
2022/06/25 10:33:26;;;;;;;3.15;2.00;;;28.40;54.90;;;;;;5144842;27;20413;-62
2022/06/25 10:35:55;;;;;;;5.18;2.20;;;27.80;54.10;;;;;;5147479;27;20039;-63
2022/06/25 10:38:23;;;;;;;5.13;1.90;;;29.10;52.50;;;;;;5149169;27;20063;-65
2022/06/25 10:40:58;;;;;;;3.97;2.15;;;29.60;51.90;;;;;;5150605;27;20079;-63
2022/06/25 10:43:53;;;;;;;3.58;1.83;;;29.80;49.80;;;;;;5146794;27;20512;-62
2022/06/25 10:46:24;;;;;;;3.22;1.73;;;29.90;47.90;;;;;;5139247;27;20054;-64
2022/06/25 10:49:11;;;;;;;3.90;1.70;;;30.70;48.30;;;;;;5130259;27;20035;-63
2022/06/25 10:51:57;;;;;;;3.92;1.30;;;30.80;45.10;;;;;;5147629;27;20038;-62
2022/06/25 10:54:22;;;;;;;1.92;1.33;;;30.50;47.90;;;;;;5154685;27;20047;-64
2022/06/25 10:56:50;;;;;;;3.60;1.33;;;30.90;47.70;;;;;;5118976;27;20047;-65
2022/06/25 10:59:37;;;;;;;2.90;1.35;;;31.70;46.10;;;;;;5149791;27;20045;-63
2022/06/25 11:02:10;;;;;;;3.25;1.35;;;31.10;45.90;;;;;;5138354;27;20393;-64
2022/06/25 11:04:37;;;;;;;3.50;1.30;;;31.10;44.70;;;;;;5141706;27;20477;-65
2022/06/25 11:07:10;;;;;;;3.35;1.40;;;30.00;47.30;;;;;;5157168;27;20081;-63
2022/06/25 11:09:37;;;;;;;3.55;1.48;;;29.10;47.20;;;;;;5130842;27;20084;-63
2022/06/25 11:12:04;;;;;;;4.35;1.48;;;28.60;50.60;;;;;;5151974;27;20145;-63
2022/06/25 11:14:30;;;;;;;2.45;1.30;;;27.70;51.90;;;;;;5130287;27;20041;-65
2022/06/25 11:16:55;;;;;;;3.08;1.45;;;27.90;52.70;;;;;;5151442;27;20038;-63
2022/06/25 11:19:23;;;;;;;1.92;1.15;;;27.70;53.50;;;;;;5123960;27;20508;-64
2022/06/25 11:21:49;;;;;;;5.30;1.70;;;27.20;53.90;;;;;;5117905;27;20051;-63
2022/06/25 11:24:24;;;;;;;3.20;1.50;;;27.60;53.00;;;;;;5149525;27;20091;-64
2022/06/25 11:29:41;;;;;;;3.30;1.40;;;27.50;51.40;;;;;;5124265;27;20046;-62
2022/06/25 11:32:08;;;;;;;1.90;1.33;;;26.40;52.80;;;;;;5142620;27;20037;-63
2022/06/25 11:34:34;;;;;;;2.88;1.05;;;25.90;53.60;;;;;;5146825;27;20026;-62
2022/06/25 11:37:03;;;;;;;3.17;1.10;;;25.90;55.60;;;;;;5149217;27;20042;-63
2022/06/25 11:39:29;;;;;;;2.95;1.13;;;26.00;55.90;;;;;;5147288;27;20027;-64
2022/06/25 11:41:55;;;;;;;2.25;1.10;;;26.30;56.60;;;;;;5151124;27;20118;-64
2022/06/25 11:44:21;;;;;;;2.05;1.38;;;26.30;56.50;;;;;;5135567;27;20394;-63
2022/06/25 11:46:48;;;;;;;2.60;1.10;;;26.40;55.20;;;;;;5134435;27;20031;-63
2022/06/25 11:49:16;;;;;;;2.70;1.25;;;26.60;55.80;;;;;;5142278;27;20412;-66
2022/06/25 11:51:46;;;;;;;5.85;1.70;;;26.60;55.10;;;;;;5144432;27;20031;-64
2022/06/25 11:54:12;;;;;;;3.05;1.42;;;27.20;56.50;;;;;;5146582;27;20055;-64
2022/06/25 11:56:46;;;;;;;2.35;1.25;;;27.20;55.00;;;;;;5139812;27;20050;-64
2022/06/25 11:59:12;;;;;;;2.90;1.50;;;27.40;54.20;;;;;;5129110;27;20134;-64
2022/06/25 12:01:37;;;;;;;2.90;1.30;;;27.30;54.00;;;;;;5141273;27;20130;-64
2022/06/25 12:04:03;;;;;;;1.98;1.40;;;27.90;53.50;;;;;;5136449;27;20049;-64
2022/06/25 12:06:29;;;;;;;2.95;1.42;;;27.80;50.80;;;;;;5129175;27;20073;-63
2022/06/25 12:08:55;;;;;;;2.25;1.30;;;27.80;52.00;;;;;;5145930;27;20031;-65
2022/06/25 12:11:28;;;;;;;1.55;1.10;;;27.70;51.90;;;;;;5123262;27;20035;-64
2022/06/25 12:13:54;;;;;;;1.33;1.15;;;28.50;51.30;;;;;;5150570;27;20075;-65
2022/06/25 12:16:19;;;;;;;2.53;1.10;;;29.30;50.90;;;;;;5148618;27;20038;-63
2022/06/25 12:18:45;;;;;;;4.57;1.45;;;29.70;50.30;;;;;;5143830;27;20114;-64
2022/06/25 12:21:19;;;;;;;1.90;1.20;;;28.10;48.60;;;;;;5144037;27;20068;-64
2022/06/25 12:23:58;;;;;;;3.10;1.30;;;28.10;51.30;;;;;;5148755;27;20545;-63
2022/06/25 12:26:24;;;;;;;1.98;1.10;;;28.50;47.90;;;;;;5145394;27;20097;-65
2022/06/25 12:28:49;;;;;;;2.42;1.00;;;27.90;50.50;;;;;;5150726;27;20606;-65
2022/06/25 12:31:16;;;;;;;3.20;1.13;;;27.60;50.90;;;;;;5150404;27;20035;-63
2022/06/25 12:33:49;;;;;;;3.00;1.40;;;27.30;51.10;;;;;;5140526;27;20058;-64
2022/06/25 12:36:19;;;;;;;3.35;1.95;;;27.00;51.90;;;;;;5147312;27;20083;-64
2022/06/25 12:38:44;;;;;;;6.07;2.20;;;26.50;53.80;;;;;;5121296;27;20578;-65
2022/06/25 12:41:10;;;;;;;5.40;3.03;;;26.20;54.70;;;;;;5149631;27;20288;-63
2022/06/25 12:43:46;;;;;;;9.38;3.70;;;26.10;55.70;;;;;;5150029;27;20478;-63
2022/06/25 12:46:13;;;;;;;3.42;1.25;;;25.60;57.00;;;;;;5125735;27;20043;-64
2022/06/25 12:48:39;;;;;;;5.55;1.92;;;25.40;57.00;;;;;;5123370;27;20045;-63